Time;durP1;ratioP1;P1;durP2;ratioP2;P2;SDS_P1;SDS_P2;PMS_P1;PMS_P2;Temp;Humidity;BMP_temperature;BMP_pressure;BME280_temperature;BME280_humidity;BME280_pressure;Samples;Min_cycle;Max_cycle;Signal;HPM_P1;HPM_P2
2022/06/18 00:00:14;;;;;;;1.47;0.90;;;22.90;81.90;;;;;;5049352;28;20822;-74
2022/06/18 00:02:42;;;;;;;1.43;0.90;;;22.80;82.70;;;;;;5030727;28;20549;-74
2022/06/18 00:05:09;;;;;;;1.47;0.90;;;22.80;82.50;;;;;;5030438;28;20524;-75
2022/06/18 00:07:39;;;;;;;1.50;0.90;;;22.80;82.80;;;;;;5050446;28;20470;-74
2022/06/18 00:10:07;;;;;;;1.47;0.90;;;22.70;82.90;;;;;;5049663;28;20494;-74
2022/06/18 00:15:36;;;;;;;1.70;1.47;;;22.70;83.20;;;;;;5007411;28;20488;-75
2022/06/18 00:18:04;;;;;;;1.50;0.90;;;22.60;83.20;;;;;;5006834;28;20464;-75
2022/06/18 00:20:35;;;;;;;1.50;0.90;;;22.60;83.00;;;;;;5020484;28;20461;-75
2022/06/18 00:23:02;;;;;;;1.50;0.90;;;22.60;83.30;;;;;;5038730;28;20955;-75
2022/06/18 00:25:32;;;;;;;1.47;0.90;;;22.50;83.20;;;;;;5031798;28;20495;-75
2022/06/18 00:28:01;;;;;;;1.43;0.87;;;22.50;83.10;;;;;;5031259;28;20872;-75
2022/06/18 00:30:30;;;;;;;1.43;0.90;;;22.50;83.10;;;;;;5041339;28;20478;-75
2022/06/18 00:32:58;;;;;;;1.50;0.87;;;22.40;83.60;;;;;;5045638;28;20462;-75
2022/06/18 00:35:25;;;;;;;1.50;1.20;;;22.40;83.20;;;;;;5034103;28;20846;-75
2022/06/18 00:37:55;;;;;;;1.70;1.33;;;22.40;83.40;;;;;;5037875;28;20549;-75
2022/06/18 00:40:26;;;;;;;1.50;0.90;;;22.40;83.20;;;;;;5048425;28;20462;-75
2022/06/18 00:42:52;;;;;;;1.47;0.90;;;22.30;83.00;;;;;;5039611;28;20682;-75
2022/06/18 00:45:26;;;;;;;1.47;0.90;;;22.30;82.70;;;;;;5029640;28;21046;-75
2022/06/18 00:48:00;;;;;;;1.40;0.90;;;22.30;82.20;;;;;;5030545;28;20474;-75
2022/06/18 00:50:32;;;;;;;1.50;0.90;;;22.30;82.60;;;;;;5029097;28;20522;-75
2022/06/18 00:53:05;;;;;;;1.43;0.90;;;22.30;82.50;;;;;;5028523;28;20478;-75
2022/06/18 00:55:36;;;;;;;1.47;0.90;;;22.30;82.30;;;;;;5039887;28;20481;-75
2022/06/18 00:58:08;;;;;;;1.50;1.00;;;22.30;82.00;;;;;;5039141;28;20462;-75
2022/06/18 01:00:43;;;;;;;1.50;0.90;;;22.30;81.70;;;;;;5029697;28;20466;-75
2022/06/18 01:03:23;;;;;;;1.43;0.90;;;22.40;81.80;;;;;;5028316;28;20545;-75
2022/06/18 01:05:51;;;;;;;1.50;0.90;;;22.40;81.70;;;;;;5028307;28;20482;-75
2022/06/18 01:08:21;;;;;;;1.50;0.90;;;22.40;81.60;;;;;;5029386;28;20455;-75
2022/06/18 01:10:51;;;;;;;1.47;0.90;;;22.40;81.80;;;;;;5027461;28;20491;-75
2022/06/18 01:13:20;;;;;;;1.47;0.90;;;22.40;81.80;;;;;;5026600;28;20473;-75
2022/06/18 01:15:48;;;;;;;1.50;0.90;;;22.40;81.80;;;;;;5028687;28;20487;-75
2022/06/18 01:18:16;;;;;;;1.50;0.90;;;22.30;81.40;;;;;;5028503;28;20467;-75
2022/06/18 01:20:48;;;;;;;1.50;0.90;;;22.40;81.60;;;;;;5033962;28;20462;-75
2022/06/18 01:23:21;;;;;;;1.43;0.90;;;22.30;81.70;;;;;;5032310;28;20546;-75
2022/06/18 01:25:50;;;;;;;1.43;0.90;;;22.30;81.70;;;;;;5027542;28;20493;-75
2022/06/18 01:28:17;;;;;;;1.47;0.90;;;22.30;81.40;;;;;;5034589;28;20473;-75
2022/06/18 01:30:44;;;;;;;1.50;0.90;;;22.30;81.50;;;;;;5037814;28;20482;-75
2022/06/18 01:33:12;;;;;;;1.47;0.90;;;22.30;81.30;;;;;;5032817;28;20470;-74
2022/06/18 01:35:42;;;;;;;1.43;0.80;;;22.30;81.40;;;;;;5032087;28;20497;-75
2022/06/18 01:38:09;;;;;;;1.50;0.90;;;22.30;81.30;;;;;;5045336;28;20466;-75
2022/06/18 01:40:43;;;;;;;1.50;1.00;;;22.30;81.10;;;;;;5034510;28;20459;-75
2022/06/18 01:43:14;;;;;;;1.50;0.90;;;22.30;81.10;;;;;;5029819;28;20459;-75
2022/06/18 01:45:42;;;;;;;1.50;1.00;;;22.30;81.40;;;;;;5031533;28;20486;-75
2022/06/18 01:48:17;;;;;;;1.43;0.90;;;22.20;81.50;;;;;;5027575;28;20463;-75
2022/06/18 01:50:48;;;;;;;1.47;0.90;;;22.20;81.30;;;;;;5030273;28;20873;-75
2022/06/18 01:53:19;;;;;;;1.43;0.90;;;22.20;81.40;;;;;;5028054;28;20464;-75
2022/06/18 01:55:52;;;;;;;1.47;0.90;;;22.20;81.10;;;;;;5028493;28;20479;-75
2022/06/18 01:58:26;;;;;;;1.47;0.90;;;22.20;81.30;;;;;;5032580;28;20465;-75
2022/06/18 02:00:58;;;;;;;1.47;0.90;;;22.10;81.80;;;;;;5029953;28;20458;-76
2022/06/18 02:03:25;;;;;;;1.50;0.90;;;22.10;82.00;;;;;;5029760;28;20948;-75
2022/06/18 02:05:52;;;;;;;1.50;0.90;;;22.10;81.40;;;;;;5032230;28;21037;-75
2022/06/18 02:08:20;;;;;;;1.43;0.80;;;22.10;81.60;;;;;;5029034;28;20817;-75
2022/06/18 02:10:51;;;;;;;1.50;0.90;;;22.10;81.50;;;;;;5026806;28;20518;-75
2022/06/18 02:13:22;;;;;;;1.50;0.90;;;22.10;81.60;;;;;;5044794;28;20982;-75
2022/06/18 02:15:49;;;;;;;1.43;0.90;;;22.10;81.50;;;;;;5039075;28;20963;-75
2022/06/18 02:18:17;;;;;;;1.43;0.90;;;22.00;81.70;;;;;;5036919;28;20958;-75
2022/06/18 02:20:49;;;;;;;1.47;0.90;;;22.00;81.60;;;;;;5044849;28;20474;-75
2022/06/18 02:23:17;;;;;;;1.50;0.90;;;22.00;81.40;;;;;;5028806;28;20467;-75
2022/06/18 02:25:45;;;;;;;1.50;0.90;;;22.00;81.40;;;;;;5031237;28;20494;-75
2022/06/18 02:28:15;;;;;;;1.47;0.90;;;22.00;81.40;;;;;;5035807;28;20467;-75
2022/06/18 02:30:44;;;;;;;1.50;0.90;;;22.00;81.30;;;;;;5034702;28;20487;-75
2022/06/18 02:33:18;;;;;;;1.50;0.90;;;22.00;81.10;;;;;;5036715;28;20549;-75
2022/06/18 02:35:45;;;;;;;1.47;0.90;;;22.00;81.60;;;;;;5044959;28;20886;-75
2022/06/18 02:38:16;;;;;;;1.50;0.90;;;22.00;81.30;;;;;;5032584;28;20991;-75
2022/06/18 02:40:43;;;;;;;1.47;0.90;;;22.10;81.60;;;;;;5029672;28;20559;-75
2022/06/18 02:43:10;;;;;;;1.40;0.90;;;22.00;81.30;;;;;;5037518;28;20841;-75
2022/06/18 02:45:38;;;;;;;1.50;0.90;;;22.10;81.50;;;;;;5047350;28;20981;-75
2022/06/18 02:48:09;;;;;;;1.47;0.90;;;22.10;81.30;;;;;;5047530;28;20469;-75
2022/06/18 02:50:40;;;;;;;1.50;0.90;;;22.10;81.10;;;;;;5046040;28;20492;-75
2022/06/18 02:53:09;;;;;;;1.43;0.90;;;22.10;81.20;;;;;;5031371;28;20465;-75
2022/06/18 02:55:38;;;;;;;1.47;0.90;;;22.10;81.00;;;;;;5031853;28;20880;-75
2022/06/18 02:58:08;;;;;;;1.47;0.90;;;22.10;81.00;;;;;;5040625;28;20952;-75
2022/06/18 03:00:37;;;;;;;1.50;0.90;;;22.10;81.20;;;;;;5025673;28;20452;-75
2022/06/18 03:03:07;;;;;;;1.50;1.20;;;22.00;81.10;;;;;;5035556;28;20485;-75
2022/06/18 03:05:34;;;;;;;1.43;0.90;;;22.00;81.30;;;;;;5031333;28;20486;-75
2022/06/18 03:08:01;;;;;;;1.47;0.90;;;22.00;83.00;;;;;;5047389;28;20466;-75
2022/06/18 03:13:12;;;;;;;1.47;0.87;;;21.90;85.60;;;;;;5044773;28;20561;-75
2022/06/18 03:15:39;;;;;;;1.43;0.90;;;21.90;85.90;;;;;;5030798;28;20946;-75
2022/06/18 03:18:08;;;;;;;1.47;0.90;;;21.80;85.70;;;;;;5032858;28;21013;-75
2022/06/18 03:20:50;;;;;;;1.43;0.90;;;21.80;85.40;;;;;;5029830;28;20464;-75
2022/06/18 03:23:19;;;;;;;1.40;0.90;;;21.80;86.00;;;;;;5030143;28;20462;-75
2022/06/18 03:25:46;;;;;;;1.43;0.90;;;21.80;85.80;;;;;;5036259;28;20958;-75
2022/06/18 03:28:14;;;;;;;1.50;0.90;;;21.70;85.70;;;;;;5034554;28;21094;-75
2022/06/18 03:30:41;;;;;;;1.47;0.90;;;21.70;86.10;;;;;;5039225;28;20490;-75
2022/06/18 03:33:10;;;;;;;1.47;0.90;;;21.70;86.60;;;;;;5031246;28;20867;-75
2022/06/18 03:35:38;;;;;;;1.43;0.90;;;21.60;86.70;;;;;;5031490;28;20483;-75
2022/06/18 03:38:05;;;;;;;1.40;0.80;;;21.60;86.50;;;;;;5035488;28;20466;-75
2022/06/18 03:40:32;;;;;;;1.40;0.90;;;21.60;86.00;;;;;;5049520;28;20465;-75
2022/06/18 03:42:59;;;;;;;1.43;0.90;;;21.60;85.70;;;;;;5044518;28;20462;-75
2022/06/18 03:45:25;;;;;;;1.47;0.90;;;21.60;84.90;;;;;;5050067;28;20482;-75
2022/06/18 03:47:52;;;;;;;1.50;0.90;;;21.60;84.00;;;;;;5032016;28;20463;-75
2022/06/18 03:50:21;;;;;;;1.50;0.90;;;21.60;84.00;;;;;;5036124;28;20866;-75
2022/06/18 03:52:48;;;;;;;1.50;0.90;;;21.60;84.10;;;;;;5029060;28;20467;-75
2022/06/18 03:55:16;;;;;;;1.50;0.90;;;21.60;83.90;;;;;;5030121;28;20462;-75
2022/06/18 03:57:43;;;;;;;1.47;0.90;;;21.70;83.90;;;;;;5048986;28;20490;-75
2022/06/18 04:00:16;;;;;;;1.43;0.90;;;21.70;83.90;;;;;;5041293;28;20472;-75
2022/06/18 04:02:43;;;;;;;1.47;0.90;;;21.70;84.20;;;;;;5033650;28;20474;-75
2022/06/18 04:05:10;;;;;;;1.40;0.90;;;21.70;84.20;;;;;;5036669;28;20459;-75
2022/06/18 04:07:40;;;;;;;1.43;0.90;;;21.80;85.00;;;;;;5030436;28;20542;-76
2022/06/18 04:10:08;;;;;;;1.47;0.90;;;21.70;86.80;;;;;;5030274;28;20459;-76
2022/06/18 04:12:35;;;;;;;1.40;0.90;;;21.70;87.10;;;;;;5027871;28;20487;-75
2022/06/18 04:15:03;;;;;;;1.47;0.83;;;21.70;87.40;;;;;;5032819;28;21020;-75
2022/06/18 04:17:29;;;;;;;1.47;0.90;;;21.70;87.40;;;;;;5031639;28;20459;-75
2022/06/18 04:19:56;;;;;;;1.43;0.90;;;21.70;87.10;;;;;;5034913;28;20474;-75
2022/06/18 04:22:27;;;;;;;1.47;0.90;;;21.80;86.40;;;;;;5030859;28;20469;-75
2022/06/18 04:24:56;;;;;;;1.47;0.90;;;21.90;86.80;;;;;;5034202;28;20567;-76
2022/06/18 04:27:22;;;;;;;1.43;0.90;;;21.90;87.20;;;;;;5036607;28;20749;-76
2022/06/18 05:24:05;;;;;;;1.50;0.90;;;24.10;83.90;;;;;;4950518;28;20816;-91
2022/06/18 05:26:32;;;;;;;1.43;0.83;;;24.30;84.30;;;;;;5036696;28;20466;-90
2022/06/18 05:28:59;;;;;;;1.47;0.90;;;24.40;83.10;;;;;;5035200;28;20470;-91
2022/06/18 05:31:26;;;;;;;1.47;0.87;;;24.50;83.00;;;;;;5044147;28;20530;-92
2022/06/18 05:33:52;;;;;;;1.50;0.90;;;24.60;82.60;;;;;;5037572;28;20521;-92
2022/06/18 05:36:20;;;;;;;1.47;0.90;;;24.70;82.50;;;;;;5046033;28;20505;-91
2022/06/18 05:38:47;;;;;;;1.50;0.90;;;24.80;81.80;;;;;;5052783;28;20509;-93
2022/06/18 05:41:15;;;;;;;1.47;0.90;;;24.90;81.60;;;;;;5042599;28;20463;-92
2022/06/18 05:43:42;;;;;;;1.43;0.90;;;25.00;81.20;;;;;;5040544;28;20466;-93
2022/06/18 05:46:12;;;;;;;1.47;0.90;;;25.10;81.20;;;;;;5052309;28;20527;-93
2022/06/18 05:48:40;;;;;;;1.50;0.87;;;25.20;80.80;;;;;;5052750;28;20486;-93
2022/06/18 05:51:07;;;;;;;1.50;1.00;;;25.40;80.40;;;;;;5041400;28;20540;-91
2022/06/18 05:53:34;;;;;;;1.43;0.80;;;25.60;80.50;;;;;;5035233;28;20490;-92
2022/06/18 05:56:01;;;;;;;1.43;0.83;;;25.70;79.90;;;;;;5039170;28;21062;-92
2022/06/18 05:58:30;;;;;;;1.50;0.90;;;25.80;79.60;;;;;;5040261;28;20478;-91
2022/06/18 06:00:57;;;;;;;1.50;0.80;;;25.90;79.70;;;;;;5038490;28;20893;-92
2022/06/18 06:03:27;;;;;;;1.47;0.90;;;26.10;79.40;;;;;;5039326;28;20866;-91
2022/06/18 06:05:54;;;;;;;1.47;0.83;;;26.20;78.70;;;;;;5031098;28;20530;-92
2022/06/18 06:08:21;;;;;;;1.47;0.83;;;26.40;78.70;;;;;;5057987;28;20983;-93
2022/06/18 06:13:33;;;;;;;1.50;1.00;;;26.80;77.30;;;;;;5043993;28;20813;-91
2022/06/18 06:16:00;;;;;;;1.50;1.00;;;26.80;77.90;;;;;;5039587;28;20473;-92
2022/06/18 06:18:29;;;;;;;1.47;0.90;;;27.00;77.80;;;;;;5031060;28;20485;-92
2022/06/18 06:20:59;;;;;;;1.50;0.90;;;27.20;76.60;;;;;;5038319;28;20841;-90
2022/06/18 06:23:26;;;;;;;1.50;0.90;;;27.40;76.40;;;;;;5037564;28;20836;-91
2022/06/18 06:25:54;;;;;;;1.47;0.80;;;27.50;76.40;;;;;;5037255;28;20463;-91
2022/06/18 06:28:23;;;;;;;1.50;0.90;;;27.70;75.60;;;;;;5034945;28;20487;-91
2022/06/18 06:30:53;;;;;;;1.50;0.90;;;27.80;75.20;;;;;;5028683;28;20829;-91
2022/06/18 06:33:20;;;;;;;1.50;0.80;;;28.00;76.10;;;;;;5042988;28;20469;-92
2022/06/18 06:35:47;;;;;;;1.50;0.80;;;28.30;74.70;;;;;;5030307;28;20459;-91
2022/06/18 06:38:15;;;;;;;1.50;0.80;;;28.60;72.20;;;;;;5036207;28;20483;-92
2022/06/18 06:40:44;;;;;;;1.43;0.80;;;28.80;72.50;;;;;;5046380;28;20450;-90
2022/06/18 06:43:12;;;;;;;1.43;0.80;;;29.00;73.40;;;;;;5037468;28;20458;-91
2022/06/18 06:45:39;;;;;;;1.50;0.80;;;29.10;73.00;;;;;;5043883;28;20465;-90
2022/06/18 06:48:08;;;;;;;1.50;0.97;;;29.10;73.40;;;;;;5045208;28;20482;-89
2022/06/18 06:50:36;;;;;;;1.47;0.90;;;29.20;72.80;;;;;;5044580;28;20462;-91
2022/06/18 06:53:03;;;;;;;1.47;0.80;;;29.20;72.70;;;;;;5038721;28;20827;-92
2022/06/18 06:58:19;;;;;;;1.43;0.80;;;29.60;70.00;;;;;;5037948;28;20466;-91
2022/06/18 07:00:48;;;;;;;1.40;0.80;;;29.90;67.90;;;;;;5048752;28;20454;-92
2022/06/18 07:03:18;;;;;;;1.43;0.80;;;30.10;67.90;;;;;;5039754;28;20470;-92
2022/06/18 07:05:46;;;;;;;1.43;0.80;;;30.30;67.50;;;;;;5035951;28;20934;-90
2022/06/18 07:08:13;;;;;;;1.43;0.80;;;30.50;67.80;;;;;;5024655;28;20466;-92
2022/06/18 07:10:40;;;;;;;1.43;0.80;;;30.60;67.60;;;;;;5034976;28;20454;-92
2022/06/18 07:13:08;;;;;;;1.50;0.80;;;30.70;66.30;;;;;;5037011;28;20572;-92
2022/06/18 07:15:35;;;;;;;1.47;0.80;;;30.70;66.30;;;;;;5035979;28;20463;-93
2022/06/18 07:18:04;;;;;;;1.43;0.80;;;30.80;66.40;;;;;;5034182;28;20495;-93
2022/06/18 07:20:33;;;;;;;1.43;0.80;;;30.90;66.70;;;;;;5037641;28;20463;-92
2022/06/18 07:23:02;;;;;;;1.47;0.80;;;31.00;66.20;;;;;;5046634;28;20485;-93
2022/06/18 07:25:29;;;;;;;1.43;0.80;;;31.20;66.40;;;;;;5056458;28;20505;-92
2022/06/18 07:27:56;;;;;;;1.47;0.80;;;31.30;65.20;;;;;;5054370;28;20495;-92
2022/06/18 07:30:23;;;;;;;1.43;0.80;;;31.40;66.10;;;;;;5053634;28;20490;-92
2022/06/18 07:32:51;;;;;;;1.47;0.80;;;31.50;66.50;;;;;;5042743;28;20532;-93
2022/06/18 07:35:24;;;;;;;1.47;0.80;;;31.60;66.00;;;;;;5054054;28;20568;-91
2022/06/18 07:37:56;;;;;;;1.47;0.80;;;31.70;65.60;;;;;;5040764;28;20505;-92
2022/06/18 07:40:24;;;;;;;1.43;0.80;;;31.80;65.70;;;;;;5034643;28;21213;-91
2022/06/18 07:42:55;;;;;;;1.43;0.80;;;31.90;66.20;;;;;;5039641;28;21026;-92
2022/06/18 07:45:25;;;;;;;1.43;0.80;;;32.20;65.70;;;;;;5049946;28;20532;-91
2022/06/18 07:47:53;;;;;;;1.43;0.80;;;32.10;65.10;;;;;;5038114;28;20584;-93
2022/06/18 07:50:24;;;;;;;1.50;0.80;;;32.30;65.80;;;;;;5056841;28;20453;-91
2022/06/18 07:52:53;;;;;;;1.50;0.80;;;32.50;64.70;;;;;;5040144;22;20500;-76
2022/06/18 07:55:23;;;;;;;1.43;0.80;;;32.80;65.50;;;;;;5016935;28;20477;-76
2022/06/18 07:57:50;;;;;;;1.47;0.80;;;33.00;64.00;;;;;;5016682;28;20494;-76
2022/06/18 08:00:19;;;;;;;1.40;0.80;;;33.20;63.80;;;;;;5010759;28;20487;-75
2022/06/18 08:02:48;;;;;;;1.47;0.80;;;33.20;64.50;;;;;;5027087;28;20311;-77
2022/06/18 08:05:21;;;;;;;1.43;0.80;;;33.30;63.70;;;;;;5018716;28;20209;-77
2022/06/18 08:07:48;;;;;;;1.60;1.17;;;33.40;63.90;;;;;;5029797;28;20509;-75
2022/06/18 08:10:16;;;;;;;1.50;0.80;;;33.60;63.80;;;;;;5029134;28;20223;-75
2022/06/18 08:12:43;;;;;;;1.43;0.80;;;33.70;63.00;;;;;;5021848;28;20236;-75
2022/06/18 08:15:10;;;;;;;1.50;0.90;;;33.90;62.80;;;;;;5017451;28;20291;-77
2022/06/18 08:17:37;;;;;;;1.43;0.80;;;34.00;63.30;;;;;;5028236;28;20238;-76
2022/06/18 08:20:06;;;;;;;1.40;0.80;;;34.10;62.20;;;;;;5024959;28;20212;-76
2022/06/18 08:22:35;;;;;;;1.47;0.80;;;34.20;62.90;;;;;;5016423;28;20220;-77
2022/06/18 08:25:03;;;;;;;1.40;0.80;;;34.30;61.90;;;;;;5015938;28;20263;-76
2022/06/18 08:27:31;;;;;;;1.40;0.80;;;34.30;61.40;;;;;;5027494;28;20230;-76
2022/06/18 08:29:58;;;;;;;1.43;0.80;;;34.40;62.40;;;;;;5028127;28;20240;-76
2022/06/18 08:32:25;;;;;;;1.47;0.80;;;34.40;61.40;;;;;;5015954;28;20192;-77
2022/06/18 08:34:51;;;;;;;1.40;0.80;;;34.40;61.10;;;;;;5016190;28;20208;-76
2022/06/18 08:37:18;;;;;;;1.43;0.80;;;34.30;61.90;;;;;;5018886;28;20231;-77
2022/06/18 08:39:48;;;;;;;1.40;0.80;;;34.40;62.20;;;;;;5022623;28;20313;-76
2022/06/18 08:42:31;;;;;;;1.40;0.80;;;34.50;61.50;;;;;;5013541;28;20224;-76
2022/06/18 08:45:13;;;;;;;1.40;0.80;;;34.70;61.90;;;;;;5017558;28;20231;-76
2022/06/18 08:48:07;;;;;;;1.40;0.80;;;34.80;62.30;;;;;;5018344;28;20206;-76
2022/06/18 08:50:46;;;;;;;1.45;0.80;;;35.00;61.10;;;;;;5010996;28;20248;-77
2022/06/18 08:53:43;;;;;;;1.40;0.80;;;35.30;60.80;;;;;;5006017;28;20296;-76
2022/06/18 08:56:15;;;;;;;1.42;0.80;;;35.30;60.20;;;;;;5016995;28;20212;-77
2022/06/18 08:58:55;;;;;;;1.40;0.80;;;35.50;59.90;;;;;;5018067;28;20235;-77
2022/06/18 09:01:29;;;;;;;1.40;0.80;;;35.60;59.20;;;;;;5009200;28;20208;-76
2022/06/18 09:04:07;;;;;;;1.42;0.80;;;35.70;59.40;;;;;;5014708;28;20226;-76
2022/06/18 09:06:58;;;;;;;1.40;0.80;;;35.80;59.50;;;;;;5012328;28;21174;-75
2022/06/18 09:09:35;;;;;;;1.42;0.80;;;35.90;58.80;;;;;;5023626;28;20266;-76
2022/06/18 09:12:10;;;;;;;1.40;0.80;;;36.10;58.10;;;;;;5013998;28;20224;-75
2022/06/18 09:14:43;;;;;;;1.40;0.80;;;36.20;58.60;;;;;;5014680;28;20318;-76
2022/06/18 09:17:17;;;;;;;1.42;0.80;;;36.40;58.20;;;;;;5009685;28;20244;-76
2022/06/18 09:19:51;;;;;;;1.40;0.80;;;36.40;57.20;;;;;;5020728;28;20651;-76
2022/06/18 09:22:20;;;;;;;1.40;0.80;;;36.40;57.40;;;;;;5020869;28;20219;-76
2022/06/18 09:24:49;;;;;;;1.40;0.80;;;36.50;58.50;;;;;;5020972;28;20606;-75
2022/06/18 09:27:25;;;;;;;1.40;0.80;;;36.50;58.00;;;;;;5016559;28;20332;-74
2022/06/18 09:29:57;;;;;;;1.40;0.80;;;36.60;57.40;;;;;;5003621;28;20219;-76
2022/06/18 09:32:31;;;;;;;1.40;0.80;;;36.70;56.50;;;;;;5004947;28;20220;-75
2022/06/18 09:35:02;;;;;;;1.40;0.80;;;36.80;56.80;;;;;;5015001;28;20258;-76
2022/06/18 09:37:37;;;;;;;1.40;0.80;;;36.80;57.90;;;;;;5015125;28;20215;-78
2022/06/18 09:40:10;;;;;;;1.40;0.80;;;37.00;57.00;;;;;;5011865;28;20322;-77
2022/06/18 09:42:41;;;;;;;1.40;0.90;;;37.20;56.20;;;;;;5012120;28;20224;-78
2022/06/18 09:45:13;;;;;;;1.40;0.80;;;37.20;55.90;;;;;;5015110;28;20331;-74
2022/06/18 09:47:46;;;;;;;1.40;0.80;;;37.30;55.40;;;;;;5018752;28;20213;-75
2022/06/18 09:50:21;;;;;;;1.40;0.80;;;37.50;56.00;;;;;;5015060;28;20740;-76
2022/06/18 09:52:52;;;;;;;1.40;0.80;;;37.60;53.90;;;;;;5011686;28;20238;-76
2022/06/18 09:55:23;;;;;;;1.40;0.80;;;37.60;54.70;;;;;;5012995;28;20683;-75
2022/06/18 09:57:55;;;;;;;1.40;0.80;;;37.70;53.60;;;;;;5005066;28;20276;-75
2022/06/18 10:00:25;;;;;;;1.40;0.80;;;37.80;53.50;;;;;;5017159;28;20591;-75
2022/06/18 10:02:58;;;;;;;1.40;0.80;;;37.90;54.10;;;;;;5022703;28;20729;-76
2022/06/18 10:08:15;;;;;;;1.40;0.80;;;38.20;53.40;;;;;;5005223;28;20231;-77
2022/06/18 10:10:48;;;;;;;1.85;1.00;;;38.40;54.40;;;;;;5012829;28;20408;-76
2022/06/18 10:13:22;;;;;;;1.40;0.80;;;38.40;54.00;;;;;;5001701;28;20243;-76
2022/06/18 10:15:49;;;;;;;1.40;0.80;;;38.50;54.10;;;;;;5014521;28;20282;-76
2022/06/18 10:18:31;;;;;;;1.85;1.02;;;38.60;53.40;;;;;;5016093;28;20288;-76
2022/06/18 10:21:05;;;;;;;1.40;0.80;;;38.70;53.00;;;;;;5014058;28;20280;-77
2022/06/18 10:23:46;;;;;;;1.38;0.80;;;38.80;54.20;;;;;;5011551;28;20239;-77
2022/06/18 10:26:24;;;;;;;1.38;0.80;;;38.90;53.10;;;;;;5012211;28;20452;-78
2022/06/18 10:28:59;;;;;;;1.40;0.80;;;39.00;53.30;;;;;;5026194;28;20282;-78
2022/06/18 10:31:42;;;;;;;1.40;0.80;;;39.00;52.20;;;;;;5019997;28;20236;-77
2022/06/18 10:34:20;;;;;;;1.40;0.80;;;39.10;54.10;;;;;;5018304;28;20315;-78
2022/06/18 10:36:55;;;;;;;1.35;0.80;;;39.20;53.10;;;;;;5012234;28;20233;-78
2022/06/18 10:39:30;;;;;;;1.40;0.80;;;39.30;53.10;;;;;;5019831;28;20320;-79
2022/06/18 10:42:08;;;;;;;1.40;0.90;;;39.40;54.00;;;;;;5014162;28;20383;-80
2022/06/18 10:44:47;;;;;;;1.40;0.80;;;39.50;52.30;;;;;;5023253;28;20292;-77
2022/06/18 10:47:18;;;;;;;1.40;0.80;;;39.50;52.30;;;;;;5013776;28;20330;-78
2022/06/18 10:49:47;;;;;;;1.38;0.80;;;39.50;53.50;;;;;;5022234;28;20299;-78
2022/06/18 10:52:20;;;;;;;1.38;0.80;;;39.50;51.80;;;;;;5012551;28;20236;-79
2022/06/18 10:54:47;;;;;;;1.40;0.80;;;39.50;52.90;;;;;;5018713;28;20715;-77
2022/06/18 10:57:24;;;;;;;1.38;0.80;;;39.60;52.00;;;;;;5013921;28;20657;-81
2022/06/18 10:59:51;;;;;;;1.40;0.80;;;39.80;51.70;;;;;;5021228;28;20284;-79
2022/06/18 11:02:21;;;;;;;1.85;1.25;;;39.80;50.90;;;;;;5021290;28;20314;-79
2022/06/18 11:05:14;;;;;;;1.40;0.80;;;39.70;51.20;;;;;;5027986;28;20231;-78
2022/06/18 11:07:41;;;;;;;1.88;1.52;;;39.70;51.90;;;;;;5014335;28;20772;-78
2022/06/18 11:10:21;;;;;;;1.30;0.80;;;39.80;51.40;;;;;;5014988;28;20266;-78
2022/06/18 11:12:54;;;;;;;1.40;0.80;;;39.90;51.70;;;;;;5027041;28;20249;-80
2022/06/18 11:15:27;;;;;;;1.38;0.80;;;40.00;51.10;;;;;;5023182;28;20211;-77
2022/06/18 11:17:54;;;;;;;1.40;0.80;;;40.20;51.70;;;;;;5012813;28;20212;-79
2022/06/18 11:20:25;;;;;;;1.38;0.80;;;40.30;51.90;;;;;;5021574;28;20214;-78
2022/06/18 11:22:54;;;;;;;1.40;0.80;;;40.30;50.90;;;;;;5010133;28;21066;-77
2022/06/18 11:25:27;;;;;;;1.40;0.80;;;40.30;51.00;;;;;;5019758;28;20247;-79
2022/06/18 11:27:56;;;;;;;1.38;0.80;;;40.30;51.10;;;;;;5028230;28;20231;-80
2022/06/18 11:30:33;;;;;;;1.40;0.80;;;40.40;50.50;;;;;;5017507;28;20681;-78
2022/06/18 11:33:02;;;;;;;1.40;0.80;;;40.20;51.50;;;;;;5018880;28;20224;-79
2022/06/18 11:35:33;;;;;;;1.40;0.80;;;40.20;51.50;;;;;;5016789;28;20240;-80
2022/06/18 11:38:02;;;;;;;1.33;0.80;;;40.30;52.10;;;;;;5014938;28;20220;-80
2022/06/18 11:40:30;;;;;;;1.40;0.80;;;40.20;51.60;;;;;;5018248;28;20583;-78
2022/06/18 11:43:00;;;;;;;1.40;0.80;;;40.40;50.70;;;;;;5009721;28;20258;-78
2022/06/18 11:45:37;;;;;;;1.35;0.80;;;40.40;51.10;;;;;;5014573;28;20296;-77
2022/06/18 11:48:13;;;;;;;1.38;0.80;;;40.50;51.60;;;;;;5019188;28;20220;-79
2022/06/18 11:50:51;;;;;;;2.25;1.27;;;40.70;52.70;;;;;;5014339;28;20687;-77
2022/06/18 11:53:24;;;;;;;1.38;0.80;;;40.80;50.80;;;;;;5018340;28;20283;-78
2022/06/18 11:55:55;;;;;;;1.40;0.80;;;41.00;50.30;;;;;;5006760;28;20217;-78
2022/06/18 11:58:30;;;;;;;1.35;0.80;;;41.00;51.10;;;;;;5020681;28;20292;-77
2022/06/18 12:01:04;;;;;;;1.35;0.80;;;41.00;49.40;;;;;;5004694;28;20212;-79
2022/06/18 12:03:38;;;;;;;1.40;0.90;;;41.10;49.50;;;;;;5023478;28;20227;-79
2022/06/18 12:06:13;;;;;;;1.35;0.80;;;41.20;51.10;;;;;;5013877;28;20295;-79
2022/06/18 12:08:41;;;;;;;1.35;0.80;;;41.30;49.90;;;;;;5037881;28;20214;-77
2022/06/18 12:11:22;;;;;;;1.40;0.80;;;41.30;49.70;;;;;;5013295;28;20287;-79
2022/06/18 12:13:53;;;;;;;1.40;0.80;;;41.40;50.00;;;;;;5012678;28;20608;-78
2022/06/18 12:16:27;;;;;;;1.63;0.90;;;41.40;49.30;;;;;;5017016;28;20210;-79
2022/06/18 12:18:59;;;;;;;1.35;0.80;;;41.40;51.00;;;;;;5020674;28;20421;-77
2022/06/18 12:21:38;;;;;;;1.35;0.80;;;41.40;51.00;;;;;;5016646;28;20480;-79
2022/06/18 12:24:15;;;;;;;1.40;0.80;;;41.30;50.00;;;;;;5016614;28;20682;-77
2022/06/18 12:26:48;;;;;;;1.38;0.80;;;41.30;50.60;;;;;;5012373;28;20240;-78
2022/06/18 12:29:41;;;;;;;1.40;0.80;;;41.40;50.90;;;;;;5015143;28;20239;-78
2022/06/18 12:32:17;;;;;;;1.35;0.80;;;41.30;50.90;;;;;;5017024;28;20535;-79
2022/06/18 12:34:55;;;;;;;1.35;0.80;;;41.10;50.10;;;;;;5020852;28;20220;-77
2022/06/18 12:37:34;;;;;;;1.35;0.80;;;41.10;49.90;;;;;;5022889;28;20238;-78
2022/06/18 12:40:10;;;;;;;1.38;0.80;;;41.20;50.10;;;;;;5024329;28;20308;-77
2022/06/18 12:42:45;;;;;;;1.38;0.80;;;41.40;51.10;;;;;;5012049;28;20380;-77
2022/06/18 12:45:21;;;;;;;1.38;0.80;;;41.50;49.60;;;;;;5019061;28;20286;-77
2022/06/18 12:48:00;;;;;;;1.40;0.80;;;41.50;50.00;;;;;;5007630;28;20704;-78
2022/06/18 12:50:36;;;;;;;1.38;0.80;;;41.50;49.80;;;;;;5014201;28;20303;-77
2022/06/18 12:53:20;;;;;;;1.35;0.80;;;41.60;50.00;;;;;;5014532;28;20266;-78
2022/06/18 12:55:54;;;;;;;1.40;0.80;;;41.40;50.50;;;;;;5003897;28;20679;-77
2022/06/18 12:58:37;;;;;;;1.38;0.80;;;41.50;49.80;;;;;;5039225;28;20616;-77
2022/06/18 13:01:08;;;;;;;1.38;0.80;;;41.40;48.30;;;;;;5000812;28;20216;-77
2022/06/18 13:03:51;;;;;;;1.40;0.80;;;41.40;48.90;;;;;;5016302;28;20576;-77
2022/06/18 13:06:30;;;;;;;1.40;0.90;;;41.50;49.40;;;;;;5012187;28;20235;-77
2022/06/18 13:09:09;;;;;;;1.40;0.80;;;41.50;50.00;;;;;;5014880;28;20235;-78
2022/06/18 13:11:45;;;;;;;1.38;0.80;;;41.50;49.70;;;;;;5013833;28;20336;-77
2022/06/18 13:14:23;;;;;;;1.35;0.80;;;41.50;48.50;;;;;;5014280;28;20310;-77
2022/06/18 13:16:56;;;;;;;1.38;0.80;;;41.40;49.60;;;;;;5012578;28;20291;-78
2022/06/18 13:19:34;;;;;;;1.38;0.80;;;41.50;49.80;;;;;;5013531;28;20212;-78
2022/06/18 13:22:02;;;;;;;1.40;0.80;;;41.40;48.90;;;;;;5008529;28;20223;-78
2022/06/18 13:30:11;;;;;;;1.38;0.80;;;41.30;49.70;;;;;;5011127;28;20270;-77
2022/06/18 13:32:47;;;;;;;1.38;0.80;;;41.20;49.80;;;;;;5006530;28;20766;-78
2022/06/18 13:35:20;;;;;;;1.38;0.80;;;41.20;48.70;;;;;;5019490;28;20262;-77
2022/06/18 13:37:54;;;;;;;1.38;0.80;;;41.20;50.10;;;;;;5016449;28;20400;-78
2022/06/18 13:40:28;;;;;;;1.35;0.80;;;41.30;49.40;;;;;;5018584;28;20212;-78
2022/06/18 13:43:05;;;;;;;1.38;0.80;;;41.50;50.50;;;;;;5010290;28;20330;-77
2022/06/18 13:45:42;;;;;;;1.35;0.80;;;41.50;50.20;;;;;;5015676;28;20236;-77
2022/06/18 13:48:25;;;;;;;1.40;0.90;;;41.50;49.80;;;;;;5016036;28;20203;-77
2022/06/18 13:50:54;;;;;;;1.38;0.80;;;41.50;49.70;;;;;;5000797;28;20243;-77
2022/06/18 13:53:31;;;;;;;1.35;0.80;;;41.50;49.50;;;;;;5014030;28;20311;-77
2022/06/18 13:56:00;;;;;;;1.38;0.80;;;41.50;50.80;;;;;;5016099;28;20239;-78
2022/06/18 13:58:30;;;;;;;1.33;0.80;;;41.50;48.40;;;;;;5017577;28;20213;-77
2022/06/18 14:01:06;;;;;;;1.38;0.80;;;41.50;49.40;;;;;;5000052;28;20666;-78
2022/06/18 14:03:38;;;;;;;1.38;0.80;;;41.50;49.50;;;;;;5019602;28;20263;-77
2022/06/18 14:06:08;;;;;;;1.38;0.80;;;41.50;49.40;;;;;;5011793;28;20302;-78
2022/06/18 14:08:41;;;;;;;1.35;0.80;;;41.40;48.40;;;;;;5005768;28;20205;-77
2022/06/18 14:11:10;;;;;;;1.35;0.80;;;41.30;48.50;;;;;;5003873;28;20235;-77
2022/06/18 14:13:47;;;;;;;1.40;0.90;;;41.20;49.10;;;;;;5013746;28;20357;-78
2022/06/18 14:16:28;;;;;;;1.38;0.80;;;41.10;49.70;;;;;;5015847;28;20296;-77
2022/06/18 14:19:06;;;;;;;1.35;0.80;;;41.10;49.10;;;;;;5009891;28;20239;-77
2022/06/18 14:21:37;;;;;;;1.38;0.80;;;41.20;50.20;;;;;;5015995;28;20243;-77